Time;durP1;ratioP1;P1;durP2;ratioP2;P2;SDS_P1;SDS_P2;PMS_P1;PMS_P2;Temp;Humidity;BMP_temperature;BMP_pressure;BME280_temperature;BME280_humidity;BME280_pressure;Samples;Min_cycle;Max_cycle;Signal;HPM_P1;HPM_P2
2021/06/16 00:00:36;;;;;;;9.45;5.43;;;17.80;99.90;;;;;;5016422;28;20025;-83
2021/06/16 00:03:02;;;;;;;10.93;5.13;;;17.80;99.90;;;;;;5018799;28;20104;-82
2021/06/16 00:05:30;;;;;;;8.25;5.22;;;17.70;99.90;;;;;;5019837;28;20377;-82
2021/06/16 00:07:56;;;;;;;8.38;6.05;;;17.60;99.90;;;;;;5001707;28;20488;-82
2021/06/16 00:10:29;;;;;;;8.90;5.30;;;17.50;99.90;;;;;;5018647;28;20022;-82
2021/06/16 00:12:54;;;;;;;7.35;5.53;;;17.50;99.90;;;;;;5001338;28;20026;-82
2021/06/16 00:15:30;;;;;;;8.85;5.53;;;17.50;99.90;;;;;;5019444;28;20380;-77
2021/06/16 00:17:56;;;;;;;7.85;5.20;;;17.60;99.90;;;;;;5000418;28;20030;-83
2021/06/16 00:20:23;;;;;;;6.18;4.97;;;17.60;99.90;;;;;;5000826;28;20573;-83
2021/06/16 00:22:49;;;;;;;8.55;5.53;;;17.50;99.90;;;;;;5000107;28;20372;-80
2021/06/16 00:25:16;;;;;;;8.43;5.30;;;17.50;99.90;;;;;;5018068;28;20487;-82
2021/06/16 00:27:42;;;;;;;9.38;6.28;;;17.40;99.90;;;;;;5000422;28;20022;-81
2021/06/16 00:30:10;;;;;;;9.82;5.45;;;17.50;99.90;;;;;;5017867;28;20030;-82
2021/06/16 00:32:37;;;;;;;7.88;5.65;;;17.50;99.90;;;;;;5018001;28;20026;-77
2021/06/16 00:35:04;;;;;;;7.97;5.68;;;17.50;99.90;;;;;;5018030;28;20198;-77
2021/06/16 00:37:32;;;;;;;9.38;5.47;;;17.40;99.90;;;;;;5018507;28;20022;-82
2021/06/16 00:39:58;;;;;;;11.20;6.10;;;17.40;99.90;;;;;;5000349;28;20077;-82
2021/06/16 00:42:24;;;;;;;11.75;5.70;;;17.40;99.90;;;;;;4999545;28;20380;-78
2021/06/16 00:44:51;;;;;;;7.72;5.70;;;17.40;99.90;;;;;;4999694;28;20032;-83
2021/06/16 00:47:18;;;;;;;9.82;5.70;;;17.20;99.90;;;;;;4999746;28;20022;-83
2021/06/16 00:49:44;;;;;;;9.60;6.28;;;17.20;99.90;;;;;;4999545;28;20033;-82
2021/06/16 00:52:10;;;;;;;10.38;6.07;;;17.20;99.90;;;;;;5000342;28;20029;-81
2021/06/16 00:54:36;;;;;;;10.68;5.72;;;17.20;99.90;;;;;;4999918;28;20041;-82
2021/06/16 00:57:02;;;;;;;7.82;5.55;;;17.10;99.90;;;;;;5017926;28;20029;-83
2021/06/16 00:59:53;;;;;;;7.38;5.25;;;17.10;99.90;;;;;;4999978;28;20480;-82
2021/06/16 01:02:20;;;;;;;7.70;5.53;;;17.10;99.90;;;;;;5000121;28;20488;-76
2021/06/16 01:04:48;;;;;;;8.02;5.50;;;17.10;99.90;;;;;;5018037;28;20038;-82
2021/06/16 01:07:15;;;;;;;9.98;5.50;;;17.10;99.90;;;;;;5017787;28;20022;-81
2021/06/16 01:10:03;;;;;;;8.98;5.63;;;17.30;99.90;;;;;;4999740;28;20026;-82
2021/06/16 01:12:29;;;;;;;8.82;5.53;;;17.30;99.90;;;;;;5000104;28;20029;-82
2021/06/16 01:15:02;;;;;;;10.10;5.80;;;17.40;99.90;;;;;;5018779;28;20057;-83
2021/06/16 01:17:54;;;;;;;8.10;5.30;;;17.40;99.90;;;;;;4999563;28;20045;-82
2021/06/16 01:20:42;;;;;;;8.20;5.15;;;17.40;99.90;;;;;;4991205;28;20033;-77
2021/06/16 01:23:09;;;;;;;7.90;5.13;;;17.40;99.90;;;;;;5017610;28;20056;-77
2021/06/16 01:26:01;;;;;;;8.57;5.07;;;17.40;99.90;;;;;;5000527;28;20032;-81
2021/06/16 01:28:41;;;;;;;10.82;5.38;;;17.40;99.90;;;;;;5013525;28;20484;-79
2021/06/16 01:31:09;;;;;;;9.05;5.40;;;17.30;99.90;;;;;;5018667;28;20037;-82
2021/06/16 01:33:36;;;;;;;7.43;5.10;;;17.40;99.90;;;;;;5017528;28;20022;-83
2021/06/16 01:36:03;;;;;;;7.63;5.43;;;17.30;99.90;;;;;;5017650;28;20018;-77
2021/06/16 01:38:29;;;;;;;8.65;5.25;;;17.30;99.90;;;;;;5016914;28;20122;-81
2021/06/16 01:40:59;;;;;;;9.23;5.60;;;17.20;99.90;;;;;;5017538;28;20040;-78
2021/06/16 01:43:26;;;;;;;8.50;4.82;;;17.00;99.90;;;;;;5000428;28;20029;-82
2021/06/16 01:45:54;;;;;;;7.10;5.22;;;17.10;99.90;;;;;;5017687;28;20029;-82
2021/06/16 01:48:22;;;;;;;7.63;5.13;;;17.10;99.90;;;;;;4999622;28;20373;-82
2021/06/16 01:50:51;;;;;;;11.10;5.57;;;17.20;99.90;;;;;;5000117;28;20113;-82
2021/06/16 01:53:19;;;;;;;7.00;5.25;;;17.10;99.90;;;;;;5017769;28;20014;-79
2021/06/16 01:55:50;;;;;;;7.95;5.22;;;17.10;99.90;;;;;;5016296;28;20030;-80
2021/06/16 01:58:17;;;;;;;7.78;4.90;;;17.20;99.90;;;;;;5016872;28;20018;-77
2021/06/16 02:00:45;;;;;;;10.35;5.20;;;17.20;99.90;;;;;;4999724;28;20022;-82
2021/06/16 02:03:11;;;;;;;6.75;4.82;;;17.10;99.90;;;;;;5016215;28;20049;-82
2021/06/16 02:05:38;;;;;;;8.15;5.00;;;17.00;99.90;;;;;;4999348;28;20492;-83
2021/06/16 02:08:12;;;;;;;7.85;5.07;;;17.10;99.90;;;;;;5017398;28;20068;-83
2021/06/16 02:10:42;;;;;;;8.50;5.15;;;17.20;99.90;;;;;;5016681;28;20026;-82
2021/06/16 02:13:10;;;;;;;6.55;4.85;;;17.10;99.90;;;;;;5016288;28;20022;-76
2021/06/16 02:15:50;;;;;;;8.40;5.35;;;16.90;99.90;;;;;;4998263;28;20026;-78
2021/06/16 02:18:20;;;;;;;7.20;5.30;;;17.00;99.90;;;;;;4998229;28;20022;-77
2021/06/16 02:20:46;;;;;;;8.85;5.43;;;17.00;99.90;;;;;;5015675;28;20049;-83
2021/06/16 02:23:12;;;;;;;8.18;4.93;;;17.10;99.90;;;;;;5015188;28;20102;-82
2021/06/16 02:25:39;;;;;;;7.25;5.30;;;17.00;99.90;;;;;;5015282;28;20022;-82
2021/06/16 02:28:05;;;;;;;8.77;5.45;;;17.00;99.90;;;;;;5015120;28;20029;-82
2021/06/16 02:30:31;;;;;;;9.27;5.22;;;17.10;99.90;;;;;;4998192;28;20068;-82
2021/06/16 02:32:57;;;;;;;8.00;5.00;;;17.00;99.90;;;;;;4997476;28;20029;-83
2021/06/16 02:35:23;;;;;;;9.80;6.03;;;17.00;99.90;;;;;;5015556;28;20029;-83
2021/06/16 02:38:00;;;;;;;9.52;4.90;;;17.10;99.90;;;;;;5015189;28;20026;-83
2021/06/16 02:40:26;;;;;;;10.70;5.13;;;17.10;99.90;;;;;;5015295;28;20030;-83
2021/06/16 02:42:53;;;;;;;8.48;5.28;;;17.10;99.90;;;;;;4997329;28;20034;-83
2021/06/16 02:45:21;;;;;;;7.43;5.40;;;17.10;99.90;;;;;;4998327;28;20029;-84
2021/06/16 02:47:49;;;;;;;9.52;5.20;;;17.10;99.90;;;;;;5015177;28;20563;-83
2021/06/16 02:50:26;;;;;;;8.63;5.35;;;17.10;99.90;;;;;;5015306;28;20027;-83
2021/06/16 02:52:56;;;;;;;9.02;5.57;;;17.00;99.90;;;;;;4997142;28;20026;-78
2021/06/16 02:55:25;;;;;;;9.05;5.40;;;17.00;99.90;;;;;;4997098;28;20029;-82
2021/06/16 02:57:54;;;;;;;8.00;5.13;;;17.00;99.90;;;;;;4997764;28;20556;-80
2021/06/16 03:00:21;;;;;;;7.82;5.50;;;17.00;99.90;;;;;;5014867;28;20364;-80
2021/06/16 03:02:49;;;;;;;8.93;5.43;;;16.90;99.90;;;;;;5014724;28;20380;-80
2021/06/16 03:05:23;;;;;;;9.18;5.65;;;17.00;99.90;;;;;;4993891;28;20066;-80
2021/06/16 03:07:56;;;;;;;9.90;5.47;;;17.00;99.90;;;;;;4995372;28;20026;-80
2021/06/16 03:10:23;;;;;;;13.15;5.93;;;17.00;99.90;;;;;;4994260;28;20029;-78
2021/06/16 03:12:53;;;;;;;9.32;5.60;;;17.00;99.90;;;;;;4993316;28;20023;-79
2021/06/16 03:15:20;;;;;;;7.22;5.28;;;17.00;99.90;;;;;;4992429;28;20032;-78
2021/06/16 03:17:47;;;;;;;7.35;5.18;;;17.00;99.90;;;;;;4993331;28;20511;-76
2021/06/16 03:20:17;;;;;;;8.25;5.68;;;17.00;99.90;;;;;;4993353;28;20113;-78
2021/06/16 03:22:45;;;;;;;11.43;5.47;;;17.00;99.90;;;;;;4993283;28;20496;-79
2021/06/16 03:25:13;;;;;;;13.48;6.00;;;17.00;99.90;;;;;;4994733;28;20027;-79
2021/06/16 03:27:39;;;;;;;11.93;5.75;;;17.00;99.90;;;;;;4994700;28;20014;-79
2021/06/16 03:30:07;;;;;;;9.38;5.85;;;16.80;99.90;;;;;;4994783;28;20037;-79
2021/06/16 03:32:35;;;;;;;11.13;5.78;;;16.70;99.90;;;;;;4994409;28;20042;-79
2021/06/16 03:35:01;;;;;;;10.82;6.07;;;16.60;99.90;;;;;;4994387;28;20027;-77
2021/06/16 03:37:27;;;;;;;8.88;5.70;;;16.50;99.90;;;;;;4993034;28;20166;-80
2021/06/16 03:39:54;;;;;;;10.48;5.65;;;16.60;99.90;;;;;;4995014;28;20168;-79
2021/06/16 03:42:21;;;;;;;10.02;6.28;;;16.40;99.90;;;;;;4994273;28;20022;-80
2021/06/16 03:44:49;;;;;;;11.32;5.90;;;16.50;99.90;;;;;;4994434;28;20026;-76
2021/06/16 03:47:18;;;;;;;9.07;5.50;;;16.70;99.90;;;;;;4994463;28;20030;-79
2021/06/16 03:49:45;;;;;;;8.75;5.60;;;16.60;99.90;;;;;;4994560;28;20109;-80
2021/06/16 03:52:15;;;;;;;10.50;5.53;;;16.70;99.90;;;;;;4993298;28;20030;-78
2021/06/16 03:54:41;;;;;;;11.20;5.65;;;16.80;99.90;;;;;;4994413;28;20025;-78
2021/06/16 03:57:08;;;;;;;9.55;5.50;;;16.90;99.90;;;;;;4994370;28;20030;-78
2021/06/16 03:59:36;;;;;;;9.45;5.75;;;16.80;99.90;;;;;;4993041;28;20052;-79
2021/06/16 04:02:02;;;;;;;7.15;5.50;;;16.90;99.90;;;;;;4994195;28;20105;-80
2021/06/16 04:04:31;;;;;;;9.05;5.40;;;16.90;99.90;;;;;;4992472;28;20073;-80
2021/06/16 04:06:59;;;;;;;7.75;5.63;;;17.00;99.90;;;;;;4994180;28;20076;-78
2021/06/16 04:09:27;;;;;;;9.20;5.57;;;17.00;99.90;;;;;;4994459;28;20049;-77
2021/06/16 04:11:53;;;;;;;12.00;5.90;;;17.00;99.90;;;;;;4994441;28;20368;-79
2021/06/16 04:14:22;;;;;;;8.60;5.38;;;17.10;99.90;;;;;;4994446;28;20496;-77
2021/06/16 04:16:53;;;;;;;9.93;6.13;;;17.00;99.90;;;;;;4993063;28;20089;-79
2021/06/16 04:19:18;;;;;;;10.48;5.50;;;17.10;99.90;;;;;;4994267;28;20435;-80
2021/06/16 04:21:44;;;;;;;9.50;6.20;;;17.10;99.90;;;;;;4994094;28;20042;-79
2021/06/16 04:24:10;;;;;;;9.25;5.78;;;17.10;99.90;;;;;;4992894;28;20114;-79
2021/06/16 04:26:36;;;;;;;13.77;6.30;;;17.20;99.90;;;;;;4994364;28;20049;-77
2021/06/16 04:29:03;;;;;;;11.75;6.07;;;17.30;99.90;;;;;;4994445;28;20177;-80
2021/06/16 04:31:29;;;;;;;13.90;7.45;;;17.30;99.90;;;;;;4993294;28;20019;-79
2021/06/16 04:33:55;;;;;;;10.55;7.20;;;17.30;99.90;;;;;;4994274;28;20452;-80
2021/06/16 04:36:22;;;;;;;12.32;6.80;;;17.40;99.90;;;;;;4994203;28;20097;-80
2021/06/16 04:38:48;;;;;;;11.35;6.20;;;17.50;99.90;;;;;;4992865;28;20034;-79
2021/06/16 04:41:14;;;;;;;8.20;5.45;;;17.60;99.90;;;;;;4994160;28;20022;-80
2021/06/16 04:43:39;;;;;;;10.82;5.85;;;17.70;99.90;;;;;;4992533;28;20073;-80
2021/06/16 04:46:05;;;;;;;10.30;5.80;;;17.80;99.90;;;;;;4995404;28;20496;-77
2021/06/16 04:48:32;;;;;;;8.80;5.18;;;17.90;99.90;;;;;;4996112;28;20030;-79
2021/06/16 04:50:58;;;;;;;12.10;5.97;;;17.80;99.90;;;;;;4997400;28;20018;-80
2021/06/16 04:53:23;;;;;;;9.63;5.28;;;18.00;99.90;;;;;;4997272;28;20358;-80
2021/06/16 04:55:50;;;;;;;8.68;5.32;;;18.10;99.90;;;;;;4997359;28;20033;-79
2021/06/16 04:58:16;;;;;;;9.65;5.50;;;18.20;99.90;;;;;;4995671;28;20032;-80
2021/06/16 05:00:43;;;;;;;8.23;5.28;;;18.30;99.90;;;;;;4997048;28;20018;-80
2021/06/16 05:03:09;;;;;;;8.73;5.60;;;18.30;99.90;;;;;;4995598;28;20027;-79
2021/06/16 05:05:36;;;;;;;8.70;5.78;;;18.40;99.90;;;;;;5016809;28;20104;-81
2021/06/16 05:08:02;;;;;;;6.70;4.65;;;18.30;99.90;;;;;;5016827;28;20026;-80
2021/06/16 05:10:28;;;;;;;7.15;5.00;;;18.40;99.90;;;;;;5016883;28;20104;-79
2021/06/16 05:12:54;;;;;;;9.98;6.40;;;18.50;99.90;;;;;;5016616;28;20048;-80
2021/06/16 05:15:20;;;;;;;9.68;6.03;;;18.40;99.90;;;;;;4999590;28;20033;-80
2021/06/16 05:17:46;;;;;;;9.50;5.88;;;18.40;99.90;;;;;;5016758;28;20379;-79
2021/06/16 05:20:14;;;;;;;11.45;5.93;;;18.70;99.90;;;;;;4999112;28;20022;-83
2021/06/16 05:22:40;;;;;;;11.20;5.88;;;18.80;99.90;;;;;;4999395;28;20029;-79
2021/06/16 05:25:09;;;;;;;10.85;6.15;;;18.90;99.90;;;;;;5017152;28;20021;-79
2021/06/16 05:27:35;;;;;;;8.20;6.00;;;19.00;99.90;;;;;;4999228;28;20029;-80
2021/06/16 05:30:03;;;;;;;10.63;6.80;;;19.00;99.90;;;;;;4998330;28;20113;-76
2021/06/16 05:32:30;;;;;;;10.90;6.75;;;18.90;99.90;;;;;;5016342;28;20026;-79
2021/06/16 05:34:56;;;;;;;13.27;7.80;;;18.90;99.90;;;;;;4998513;28;20072;-77
2021/06/16 05:37:23;;;;;;;13.02;8.00;;;18.90;99.90;;;;;;5016826;28;20025;-79
2021/06/16 05:39:50;;;;;;;11.00;8.35;;;18.90;99.90;;;;;;4998999;28;20060;-80
2021/06/16 05:42:16;;;;;;;13.70;8.35;;;18.90;99.90;;;;;;5016839;28;20117;-78
2021/06/16 05:44:42;;;;;;;12.55;8.10;;;19.00;99.90;;;;;;5016324;28;20017;-77
2021/06/16 05:47:08;;;;;;;13.93;8.00;;;19.10;99.90;;;;;;4998538;28;20040;-79
2021/06/16 05:49:34;;;;;;;13.00;7.03;;;19.20;99.90;;;;;;4999024;28;20476;-77
2021/06/16 05:52:00;;;;;;;10.20;6.88;;;19.30;99.90;;;;;;5016242;28;20030;-77
2021/06/16 05:54:27;;;;;;;9.75;6.65;;;19.30;99.90;;;;;;4998669;28;20026;-79
2021/06/16 05:56:53;;;;;;;10.45;6.65;;;19.60;99.90;;;;;;5015784;28;20022;-78
2021/06/16 05:59:22;;;;;;;12.75;6.55;;;19.80;99.90;;;;;;5015894;28;20105;-80
2021/06/16 06:01:48;;;;;;;10.48;6.25;;;20.00;99.90;;;;;;5015809;28;20036;-78
2021/06/16 06:04:14;;;;;;;11.32;6.28;;;20.00;99.90;;;;;;4998017;28;20499;-83
2021/06/16 06:06:40;;;;;;;10.98;6.00;;;20.10;99.90;;;;;;5016379;28;20088;-80
2021/06/16 06:09:08;;;;;;;8.63;6.38;;;20.30;99.90;;;;;;5015662;28;20475;-77
2021/06/16 06:11:36;;;;;;;10.77;6.10;;;20.30;99.90;;;;;;4998359;28;20114;-76
2021/06/16 06:14:03;;;;;;;9.45;5.85;;;20.30;99.90;;;;;;4998280;28;20372;-80
2021/06/16 06:16:29;;;;;;;10.45;5.65;;;20.40;99.90;;;;;;5015644;28;20104;-78
2021/06/16 06:18:55;;;;;;;9.38;5.65;;;20.60;99.90;;;;;;5015591;28;20018;-77
2021/06/16 06:21:22;;;;;;;8.65;5.00;;;20.70;99.90;;;;;;5015398;28;20550;-77
2021/06/16 06:23:48;;;;;;;9.50;5.35;;;20.90;99.90;;;;;;4997898;28;20026;-78
2021/06/16 06:26:14;;;;;;;9.13;5.85;;;21.10;99.90;;;;;;5016790;28;20029;-83
2021/06/16 06:28:43;;;;;;;11.85;5.88;;;21.10;99.90;;;;;;5016386;28;20055;-79
2021/06/16 06:31:09;;;;;;;10.57;5.43;;;21.20;99.90;;;;;;5015693;28;20499;-83
2021/06/16 06:33:35;;;;;;;7.90;5.47;;;21.50;99.90;;;;;;5015074;28;20121;-78
2021/06/16 06:36:01;;;;;;;9.60;5.60;;;21.50;99.90;;;;;;5015486;28;20061;-85
2021/06/16 06:38:27;;;;;;;9.43;5.65;;;21.40;99.80;;;;;;4997321;28;20502;-79
2021/06/16 06:40:53;;;;;;;8.82;5.07;;;21.60;99.50;;;;;;5014725;28;20076;-87
2021/06/16 06:43:19;;;;;;;8.77;4.90;;;21.80;99.50;;;;;;5014938;28;20022;-76
2021/06/16 06:45:45;;;;;;;10.55;5.13;;;22.00;99.00;;;;;;5014774;28;20480;-84
2021/06/16 06:48:11;;;;;;;11.30;4.78;;;22.00;98.30;;;;;;5013971;28;20052;-84
2021/06/16 06:50:37;;;;;;;8.45;5.20;;;;;;;;;;5014204;28;20570;-79
2021/06/16 06:53:03;;;;;;;9.18;4.72;;;22.10;98.40;;;;;;4992832;28;20019;-79
2021/06/16 06:55:30;;;;;;;10.13;4.78;;;22.30;98.30;;;;;;4994478;28;20050;-82
2021/06/16 06:57:56;;;;;;;7.47;4.93;;;22.50;98.20;;;;;;4977332;28;20061;-83
2021/06/16 07:00:22;;;;;;;6.57;4.60;;;22.50;98.00;;;;;;4994700;28;20475;-82
2021/06/16 07:02:48;;;;;;;9.43;4.60;;;22.80;98.10;;;;;;4994627;28;20031;-81
2021/06/16 07:05:15;;;;;;;8.25;4.38;;;22.90;97.40;;;;;;4973724;28;20394;-82
2021/06/16 07:07:42;;;;;;;9.48;4.35;;;22.80;97.60;;;;;;4973910;28;20354;-81
2021/06/16 07:10:09;;;;;;;12.75;4.55;;;23.00;96.80;;;;;;4975075;28;20023;-82
2021/06/16 07:12:36;;;;;;;8.20;4.53;;;23.10;96.60;;;;;;4975448;28;20023;-79
2021/06/16 07:15:03;;;;;;;8.05;4.10;;;23.10;96.20;;;;;;4975175;28;20495;-84
2021/06/16 07:17:29;;;;;;;6.65;4.10;;;23.10;95.70;;;;;;4974999;28;20033;-76
2021/06/16 07:19:55;;;;;;;6.25;3.90;;;23.30;96.20;;;;;;4973764;28;20121;-84
2021/06/16 07:22:21;;;;;;;8.63;4.43;;;23.30;95.90;;;;;;4973784;28;20516;-85
2021/06/16 07:24:47;;;;;;;7.47;4.18;;;23.40;95.70;;;;;;4975023;28;20019;-84
2021/06/16 07:27:13;;;;;;;6.18;4.13;;;23.60;95.70;;;;;;4975219;28;20030;-78
2021/06/16 07:29:39;;;;;;;8.73;4.25;;;23.90;95.80;;;;;;4973908;28;20027;-77
2021/06/16 07:32:06;;;;;;;8.15;4.32;;;24.00;94.90;;;;;;4974965;28;20027;-80
2021/06/16 07:34:32;;;;;;;8.68;4.55;;;24.00;95.10;;;;;;4973617;28;20023;-81
2021/06/16 07:36:58;;;;;;;8.85;4.45;;;24.00;94.80;;;;;;4975407;28;20015;-79
2021/06/16 07:39:25;;;;;;;8.20;4.30;;;24.00;95.00;;;;;;4975535;28;20026;-76
2021/06/16 07:41:51;;;;;;;11.00;4.30;;;24.00;95.00;;;;;;4973915;28;20556;-77
2021/06/16 07:44:17;;;;;;;12.48;4.28;;;24.10;95.00;;;;;;4974859;28;20417;-81
2021/06/16 07:46:43;;;;;;;8.70;4.25;;;24.30;95.40;;;;;;4974924;28;20358;-81
2021/06/16 07:49:09;;;;;;;10.52;4.38;;;24.30;94.50;;;;;;4974962;28;20078;-81
2021/06/16 07:51:35;;;;;;;7.28;4.20;;;24.60;94.10;;;;;;4973431;28;20086;-78
2021/06/16 07:54:01;;;;;;;7.90;4.53;;;24.60;94.10;;;;;;4974634;28;20019;-74
2021/06/16 07:56:27;;;;;;;7.55;4.45;;;24.90;95.10;;;;;;4974797;28;20023;-79
2021/06/16 07:58:53;;;;;;;9.00;4.38;;;25.10;94.60;;;;;;4974672;28;20073;-79
2021/06/16 08:01:19;;;;;;;8.18;4.50;;;25.10;93.90;;;;;;4974573;28;20027;-78
2021/06/16 08:03:46;;;;;;;7.55;4.40;;;25.30;93.60;;;;;;4979173;28;20050;-79
2021/06/16 08:06:12;;;;;;;6.15;3.75;;;25.20;92.90;;;;;;4976613;28;20113;-78
2021/06/16 08:08:38;;;;;;;7.10;3.90;;;25.50;93.20;;;;;;4976306;28;20022;-74
2021/06/16 08:11:04;;;;;;;6.32;3.70;;;25.40;92.20;;;;;;4993934;28;20021;-78
2021/06/16 08:13:32;;;;;;;4.57;3.40;;;25.50;93.50;;;;;;4976555;28;20030;-75
2021/06/16 08:15:58;;;;;;;7.70;3.90;;;25.70;91.70;;;;;;4976353;28;20382;-78
2021/06/16 08:18:25;;;;;;;9.25;3.78;;;25.70;90.80;;;;;;4993946;28;20480;-80
2021/06/16 08:20:52;;;;;;;9.23;3.60;;;26.00;91.70;;;;;;4977691;28;20034;-79
2021/06/16 08:23:18;;;;;;;6.78;3.47;;;25.90;91.70;;;;;;4997476;28;20396;-78
2021/06/16 08:25:44;;;;;;;13.77;3.80;;;25.90;90.80;;;;;;4997573;28;20023;-79
2021/06/16 08:28:10;;;;;;;6.32;3.45;;;26.20;90.40;;;;;;4997779;28;20093;-76
2021/06/16 08:30:37;;;;;;;6.13;3.50;;;26.10;90.00;;;;;;4997652;28;20022;-79
2021/06/16 08:33:03;;;;;;;6.07;3.38;;;26.10;90.20;;;;;;4980104;28;20137;-80
2021/06/16 08:35:32;;;;;;;6.82;3.50;;;26.30;90.50;;;;;;4997423;28;20022;-81
2021/06/16 08:37:58;;;;;;;9.93;3.80;;;26.50;90.20;;;;;;4979823;28;20026;-78
2021/06/16 08:40:24;;;;;;;6.03;3.33;;;26.50;90.90;;;;;;4997692;28;20026;-75
2021/06/16 08:42:50;;;;;;;7.10;3.30;;;26.90;89.30;;;;;;4979814;28;20084;-81
2021/06/16 08:45:18;;;;;;;7.80;3.45;;;27.00;87.00;;;;;;4997719;28;20028;-75
2021/06/16 08:47:48;;;;;;;7.75;3.25;;;27.10;89.30;;;;;;4997496;28;20022;-80
2021/06/16 08:50:15;;;;;;;7.57;3.58;;;27.00;88.80;;;;;;4997592;28;20101;-80
2021/06/16 08:52:44;;;;;;;6.75;3.20;;;26.90;86.40;;;;;;4979939;28;20026;-78
2021/06/16 08:55:12;;;;;;;5.75;3.50;;;26.70;84.70;;;;;;4979671;28;20050;-80
2021/06/16 08:57:39;;;;;;;4.80;3.25;;;26.90;85.70;;;;;;4997537;28;20033;-80
2021/06/16 09:00:08;;;;;;;5.93;3.17;;;27.10;86.90;;;;;;4997296;28;20419;-78
2021/06/16 09:02:34;;;;;;;5.00;2.97;;;27.30;85.10;;;;;;4997673;28;20031;-84
2021/06/16 09:05:03;;;;;;;7.07;3.15;;;27.20;83.40;;;;;;4997163;28;20046;-80
2021/06/16 09:07:32;;;;;;;5.65;3.38;;;27.50;86.30;;;;;;4998766;28;20026;-84
2021/06/16 09:10:30;;;;;;;6.22;3.60;;;27.60;85.80;;;;;;4997868;28;20050;-84
2021/06/16 09:13:07;;;;;;;6.22;3.30;;;27.80;83.80;;;;;;4940327;29;20043;-80
2021/06/16 09:15:33;;;;;;;5.78;2.95;;;27.90;84.60;;;;;;4922023;29;20486;-85
2021/06/16 09:18:04;;;;;;;6.72;3.30;;;28.10;82.60;;;;;;4938226;29;20115;-85
2021/06/16 09:20:34;;;;;;;7.97;3.10;;;28.20;84.10;;;;;;4938755;29;20430;-86
2021/06/16 09:23:19;;;;;;;6.28;2.90;;;28.40;83.50;;;;;;4937432;29;20486;-85
2021/06/16 09:26:12;;;;;;;7.20;2.88;;;28.40;81.00;;;;;;4937562;29;20028;-85
2021/06/16 09:28:43;;;;;;;8.10;3.05;;;28.40;79.60;;;;;;4937795;29;20035;-83
2021/06/16 09:31:14;;;;;;;5.88;2.95;;;28.20;79.10;;;;;;4937687;29;20031;-85
2021/06/16 09:33:47;;;;;;;6.95;2.97;;;28.30;78.00;;;;;;4937410;29;20028;-85
2021/06/16 09:36:17;;;;;;;9.13;3.22;;;28.50;77.00;;;;;;4936947;29;20040;-84
2021/06/16 09:38:47;;;;;;;5.70;2.90;;;28.60;79.10;;;;;;4937946;29;20410;-85
2021/06/16 09:41:21;;;;;;;5.88;3.20;;;28.70;76.10;;;;;;4938687;29;20132;-83
2021/06/16 09:43:53;;;;;;;5.45;2.60;;;29.00;80.20;;;;;;4936998;29;20386;-81
2021/06/16 09:46:19;;;;;;;5.53;2.80;;;28.90;76.70;;;;;;4921345;29;20038;-84
2021/06/16 09:48:47;;;;;;;5.15;2.80;;;29.00;75.00;;;;;;4974141;28;20060;-84
2021/06/16 09:51:33;;;;;;;5.75;3.00;;;29.10;76.30;;;;;;4996928;28;20023;-84
2021/06/16 09:54:21;;;;;;;5.60;3.35;;;29.20;75.30;;;;;;4998371;28;20569;-84
2021/06/16 09:57:02;;;;;;;6.47;3.10;;;;;;;;;;4996131;28;20027;-79
2021/06/16 09:59:43;;;;;;;7.65;3.08;;;29.10;74.10;;;;;;4997440;28;20030;-83
2021/06/16 10:02:23;;;;;;;4.65;2.78;;;29.40;74.10;;;;;;4995920;28;20482;-84
2021/06/16 10:05:02;;;;;;;6.47;2.83;;;29.30;74.70;;;;;;4975427;28;20046;-85
2021/06/16 10:07:29;;;;;;;5.63;3.00;;;29.80;77.40;;;;;;4976515;28;20054;-85
2021/06/16 10:09:56;;;;;;;5.63;3.20;;;29.40;72.70;;;;;;4975643;28;20027;-79
2021/06/16 10:12:36;;;;;;;6.10;3.17;;;29.70;73.50;;;;;;4975641;28;20023;-85
2021/06/16 10:15:13;;;;;;;5.55;2.88;;;29.70;70.00;;;;;;4975649;28;20081;-76
2021/06/16 10:17:39;;;;;;;7.18;3.20;;;28.90;69.60;;;;;;4975969;28;20503;-85
2021/06/16 10:20:07;;;;;;;9.20;2.95;;;29.30;73.30;;;;;;4975228;28;20031;-83
2021/06/16 10:22:33;;;;;;;7.35;2.88;;;29.50;71.00;;;;;;4975925;28;20485;-80
2021/06/16 10:24:59;;;;;;;4.95;2.78;;;;;;;;;;4974798;28;20019;-84
2021/06/16 10:27:46;;;;;;;6.03;3.00;;;29.90;70.90;;;;;;4976332;28;20034;-79
2021/06/16 10:30:15;;;;;;;5.47;2.90;;;30.00;71.30;;;;;;4976300;28;20023;-85
2021/06/16 10:32:43;;;;;;;6.47;2.90;;;30.30;71.30;;;;;;4975987;28;20362;-85
2021/06/16 10:35:12;;;;;;;4.32;2.80;;;30.30;69.50;;;;;;4974442;28;20389;-85
2021/06/16 10:37:42;;;;;;;4.00;3.05;;;30.50;70.10;;;;;;4975868;28;20089;-84
2021/06/16 10:40:21;;;;;;;5.65;2.72;;;30.70;68.80;;;;;;4974349;28;20027;-85
2021/06/16 10:43:03;;;;;;;8.57;3.22;;;30.40;69.20;;;;;;4975707;28;20039;-86
2021/06/16 10:45:37;;;;;;;6.00;2.80;;;30.70;70.70;;;;;;4976168;28;20066;-89
2021/06/16 10:48:09;;;;;;;7.80;3.33;;;30.40;67.60;;;;;;4975053;28;20027;-88
2021/06/16 10:50:48;;;;;;;5.05;2.90;;;30.60;69.20;;;;;;4976101;28;20111;-78
2021/06/16 10:53:14;;;;;;;4.47;2.72;;;30.90;66.10;;;;;;4976125;28;20564;-83
2021/06/16 10:55:56;;;;;;;5.22;2.95;;;30.90;67.90;;;;;;4975771;28;20426;-81
2021/06/16 10:58:25;;;;;;;4.28;2.70;;;30.20;65.30;;;;;;4975987;28;20089;-91
2021/06/16 11:01:11;;;;;;;5.00;2.83;;;30.40;67.20;;;;;;4975876;28;20023;-90
2021/06/16 11:03:52;;;;;;;5.45;2.80;;;30.60;67.50;;;;;;4974358;28;20051;-81
2021/06/16 11:06:33;;;;;;;6.75;2.90;;;30.60;68.70;;;;;;4962640;28;20439;-81
2021/06/16 11:09:03;;;;;;;6.47;3.20;;;30.50;66.60;;;;;;4956835;28;20051;-79
2021/06/16 11:11:51;;;;;;;7.15;2.85;;;30.50;63.60;;;;;;4955323;28;20026;-86
2021/06/16 11:14:39;;;;;;;7.75;2.83;;;31.10;67.10;;;;;;4956986;28;20023;-82
2021/06/16 11:17:10;;;;;;;5.18;2.80;;;30.90;64.70;;;;;;4955298;28;20103;-91
2021/06/16 11:19:36;;;;;;;4.15;2.50;;;30.40;62.50;;;;;;4955427;28;20027;-82
2021/06/16 11:22:24;;;;;;;6.38;2.58;;;29.90;62.90;;;;;;4956707;28;20495;-92
2021/06/16 11:25:08;;;;;;;5.10;2.80;;;30.00;65.60;;;;;;4956800;29;20037;-91
2021/06/16 11:28:14;;;;;;;5.05;2.50;;;30.10;66.00;;;;;;4955584;28;20027;-81
2021/06/16 11:30:55;;;;;;;4.95;2.45;;;30.40;69.30;;;;;;4956802;28;20031;-88
2021/06/16 11:33:21;;;;;;;4.18;2.80;;;30.80;65.60;;;;;;4956416;28;20047;-87
2021/06/16 11:36:02;;;;;;;7.38;3.17;;;30.60;64.00;;;;;;4956653;28;20043;-89
2021/06/16 11:38:43;;;;;;;5.18;2.90;;;30.60;66.60;;;;;;4955298;28;20462;-85
2021/06/16 11:41:15;;;;;;;5.63;2.63;;;30.60;65.50;;;;;;4956053;28;20038;-90
2021/06/16 11:43:43;;;;;;;3.10;2.28;;;30.80;65.80;;;;;;4955903;28;20481;-91
2021/06/16 11:46:29;;;;;;;7.18;2.58;;;31.30;67.40;;;;;;4955984;28;20029;-88
2021/06/16 11:49:07;;;;;;;7.72;2.70;;;31.70;66.60;;;;;;4955023;28;20028;-81
2021/06/16 11:51:46;;;;;;;8.30;2.90;;;31.40;67.50;;;;;;4955984;28;20042;-87
2021/06/16 11:54:24;;;;;;;3.47;2.60;;;31.10;63.50;;;;;;4955510;28;20087;-86
2021/06/16 11:57:13;;;;;;;3.20;2.40;;;31.30;64.20;;;;;;4960936;28;20425;-91
2021/06/16 11:59:43;;;;;;;5.22;2.42;;;31.30;64.10;;;;;;4958678;28;20027;-89
2021/06/16 12:02:19;;;;;;;5.60;2.80;;;31.50;65.60;;;;;;4959900;28;20027;-87
2021/06/16 12:04:51;;;;;;;5.47;2.42;;;31.50;62.40;;;;;;4972196;28;20516;-82
2021/06/16 12:07:31;;;;;;;4.53;2.70;;;31.60;62.40;;;;;;4961791;28;20042;-81
2021/06/16 12:10:01;;;;;;;3.45;2.63;;;31.90;67.60;;;;;;4979050;28;20029;-86
2021/06/16 12:12:27;;;;;;;5.00;2.63;;;31.60;63.00;;;;;;4961953;28;20035;-79
2021/06/16 12:15:13;;;;;;;4.95;2.70;;;31.40;60.80;;;;;;4961965;28;20018;-87
2021/06/16 12:18:00;;;;;;;4.68;2.50;;;31.70;63.50;;;;;;4975530;28;20080;-92
2021/06/16 12:20:38;;;;;;;5.00;2.38;;;31.90;63.10;;;;;;4979358;28;20019;-93
2021/06/16 12:23:24;;;;;;;4.43;2.60;;;31.90;65.10;;;;;;4978987;28;20042;-88
2021/06/16 12:26:14;;;;;;;4.07;2.50;;;32.20;60.80;;;;;;4961998;28;20022;-83
2021/06/16 12:28:42;;;;;;;4.68;2.60;;;31.60;60.40;;;;;;4962368;28;20034;-88
2021/06/16 12:31:12;;;;;;;3.75;2.33;;;;;;;;;;4978635;28;20023;-79
2021/06/16 12:34:17;;;;;;;3.88;2.40;;;31.30;61.50;;;;;;4978557;28;20018;-82
2021/06/16 12:36:36;;;;;;;6.68;2.40;;;30.70;59.80;;;;;;4976596;28;20081;-79
2021/06/16 12:39:13;;;;;;;4.05;2.40;;;30.50;61.20;;;;;;4978213;28;20026;-81
2021/06/16 12:41:41;;;;;;;6.10;4.47;;;30.80;63.40;;;;;;4960556;28;20126;-83
2021/06/16 12:44:32;;;;;;;5.60;2.75;;;31.40;65.10;;;;;;4960839;28;20031;-80
2021/06/16 12:47:03;;;;;;;4.38;2.45;;;31.60;63.40;;;;;;4978563;28;20085;-82
2021/06/16 12:49:39;;;;;;;4.65;2.65;;;31.40;58.80;;;;;;4978260;28;20023;-85
2021/06/16 12:52:07;;;;;;;6.05;2.85;;;31.80;62.00;;;;;;4960455;28;20049;-80
2021/06/16 12:54:36;;;;;;;3.78;2.53;;;31.80;60.00;;;;;;4978357;28;20102;-77
2021/06/16 12:57:13;;;;;;;6.18;2.50;;;32.00;60.90;;;;;;4977799;28;20041;-79
2021/06/16 12:59:45;;;;;;;6.07;2.80;;;31.90;62.50;;;;;;4960055;28;20110;-75